Time;durP1;ratioP1;P1;durP2;ratioP2;P2;SDS_P1;SDS_P2;PMS_P1;PMS_P2;Temp;Humidity;BMP_temperature;BMP_pressure;BME280_temperature;BME280_humidity;BME280_pressure;Samples;Min_cycle;Max_cycle;Signal;HPM_P1;HPM_P2
2023/04/05 00:01:11;;;;;;;29.33;12.70;;;1.00;99.90;;;;;;10167315;29;20273;-83
2023/04/05 00:06:15;;;;;;;39.87;15.17;;;1.10;99.90;;;;;;10164500;29;20302;-83
2023/04/05 00:11:17;;;;;;;32.77;15.17;;;1.20;99.90;;;;;;10166124;29;20233;-83
2023/04/05 00:16:20;;;;;;;33.23;14.27;;;1.30;99.90;;;;;;10164613;29;20296;-83
2023/04/05 00:21:24;;;;;;;29.13;13.00;;;1.70;99.90;;;;;;10165857;29;20672;-83
2023/04/05 00:26:26;;;;;;;27.13;13.73;;;2.00;99.90;;;;;;10163963;29;20237;-83
2023/04/05 00:31:31;;;;;;;28.90;14.73;;;2.20;99.90;;;;;;10165451;29;20707;-83
2023/04/05 00:36:35;;;;;;;17.97;10.17;;;2.50;99.90;;;;;;10166101;29;20259;-83
2023/04/05 00:41:37;;;;;;;30.47;14.10;;;2.60;99.90;;;;;;10167585;29;20252;-83
2023/04/05 00:46:41;;;;;;;22.67;10.73;;;2.80;99.90;;;;;;10165931;29;20224;-84
2023/04/05 00:51:44;;;;;;;21.30;10.43;;;2.90;99.90;;;;;;10138799;29;20250;-84
2023/04/05 00:56:47;;;;;;;23.47;13.03;;;3.00;99.70;;;;;;10128391;29;20256;-83
2023/04/05 01:02:12;;;;;;;30.73;14.33;;;2.70;98.40;;;;;;10137052;29;20235;-83
2023/04/05 01:07:27;;;;;;;20.27;11.33;;;2.30;97.10;;;;;;10166296;29;20245;-83
2023/04/05 01:12:33;;;;;;;34.97;16.10;;;1.70;98.70;;;;;;10149939;29;20757;-83
2023/04/05 01:17:38;;;;;;;26.50;12.87;;;2.10;98.60;;;;;;10165097;29;20333;-83
2023/04/05 01:22:50;;;;;;;32.23;15.40;;;1.90;98.30;;;;;;10165323;29;20233;-83
2023/04/05 01:27:56;;;;;;;32.67;16.33;;;2.00;98.20;;;;;;10166417;29;20300;-83
2023/04/05 01:33:07;;;;;;;26.33;14.23;;;1.70;97.70;;;;;;10170492;29;20473;-84
2023/04/05 01:38:17;;;;;;;31.30;15.27;;;1.50;98.80;;;;;;10173732;29;20237;-84
2023/04/05 01:43:19;;;;;;;31.23;14.70;;;1.00;99.90;;;;;;10172467;29;20277;-84
2023/04/05 01:48:22;;;;;;;32.47;15.90;;;0.30;99.90;;;;;;10171267;29;20292;-84
2023/04/05 01:53:25;;;;;;;34.57;15.30;;;-0.10;99.90;;;;;;10171763;29;20261;-84
2023/04/05 01:58:27;;;;;;;25.67;12.80;;;0.20;99.90;;;;;;10172862;29;20233;-84
2023/04/05 02:03:30;;;;;;;28.17;13.03;;;0.20;99.90;;;;;;10171065;29;20252;-84
2023/04/05 02:08:33;;;;;;;30.23;14.47;;;-0.20;99.90;;;;;;10171159;29;20228;-84
2023/04/05 02:13:35;;;;;;;31.03;14.77;;;-0.60;99.90;;;;;;10170735;29;20259;-83
2023/04/05 02:18:38;;;;;;;32.83;16.00;;;-0.70;99.90;;;;;;10161102;29;20243;-84
2023/04/05 02:23:42;;;;;;;28.63;15.17;;;-1.00;99.90;;;;;;10133233;29;20296;-84
2023/04/05 02:28:46;;;;;;;30.83;15.60;;;-1.20;99.90;;;;;;10133020;29;20296;-83
2023/04/05 02:33:48;;;;;;;27.23;13.50;;;-1.00;99.90;;;;;;10144831;29;20259;-83
2023/04/05 02:38:51;;;;;;;21.17;9.50;;;-1.10;99.90;;;;;;10171268;29;20236;-83
2023/04/05 02:43:53;;;;;;;27.23;12.50;;;-0.80;99.90;;;;;;10171287;29;20625;-83
2023/04/05 02:48:56;;;;;;;25.87;14.53;;;-0.60;99.90;;;;;;10170482;29;20807;-83
2023/04/05 02:54:02;;;;;;;23.27;13.03;;;-0.80;99.90;;;;;;10167366;29;20248;-83
2023/04/05 02:59:08;;;;;;;26.27;14.63;;;-0.90;99.90;;;;;;10169287;29;20235;-83
2023/04/05 03:04:12;;;;;;;27.43;12.83;;;-1.20;99.90;;;;;;10169541;29;20227;-83
2023/04/05 03:09:15;;;;;;;17.80;10.80;;;-1.20;99.90;;;;;;10168833;29;20248;-83
2023/04/05 03:14:20;;;;;;;21.90;11.73;;;-1.00;99.90;;;;;;10166738;29;20674;-83
2023/04/05 03:19:25;;;;;;;19.83;10.70;;;-1.00;99.90;;;;;;10169692;29;20704;-83
2023/04/05 03:24:34;;;;;;;28.83;14.10;;;-1.30;99.90;;;;;;10168446;29;20223;-83
2023/04/05 03:29:41;;;;;;;29.10;14.30;;;-1.40;99.90;;;;;;10167510;29;20280;-84
2023/04/05 03:34:50;;;;;;;20.57;11.53;;;-1.60;99.90;;;;;;10167422;29;21028;-84
2023/04/05 03:39:55;;;;;;;20.73;10.23;;;-1.70;99.90;;;;;;10167625;29;20306;-83
2023/04/05 03:44:58;;;;;;;30.50;14.47;;;-1.60;99.90;;;;;;10165247;29;20271;-83
2023/04/05 03:50:02;;;;;;;21.07;11.27;;;-1.40;99.90;;;;;;10167140;29;20617;-83
2023/04/05 03:55:07;;;;;;;27.80;13.47;;;-1.40;99.90;;;;;;10165185;29;20262;-83
2023/04/05 04:00:13;;;;;;;28.17;11.73;;;-1.40;99.90;;;;;;10166070;29;20312;-83
2023/04/05 04:05:16;;;;;;;28.87;12.57;;;-1.20;99.90;;;;;;10169445;29;20263;-83
2023/04/05 04:10:23;;;;;;;21.00;10.87;;;-1.10;99.90;;;;;;10166874;29;20295;-84
2023/04/05 04:15:30;;;;;;;31.77;14.83;;;-1.00;99.90;;;;;;10165723;29;20342;-83
2023/04/05 04:20:44;;;;;;;30.13;13.53;;;-1.00;99.90;;;;;;10135460;29;20685;-83
2023/04/05 04:26:04;;;;;;;34.93;16.57;;;-1.10;99.90;;;;;;10167034;29;20231;-83
2023/04/05 04:31:32;;;;;;;27.10;12.83;;;-1.30;99.90;;;;;;10084084;29;20245;-83
2023/04/05 04:37:00;;;;;;;25.17;13.60;;;-1.10;99.90;;;;;;10036358;29;20818;-84
2023/04/05 04:42:18;;;;;;;23.97;12.57;;;-1.40;99.90;;;;;;10084790;29;20229;-85
2023/04/05 04:47:48;;;;;;;32.53;17.57;;;-1.30;99.90;;;;;;10079876;29;20969;-84
2023/04/05 04:53:21;;;;;;;40.90;19.10;;;-1.20;99.90;;;;;;10056616;29;20248;-83
2023/04/05 04:58:25;;;;;;;46.03;17.87;;;-1.50;99.90;;;;;;10056475;29;20262;-92
2023/04/05 05:03:38;;;;;;;45.83;22.03;;;-1.20;99.90;;;;;;10083630;29;20242;-93
2023/04/05 05:08:40;;;;;;;39.57;22.50;;;1.00;99.90;;;;;;10153904;29;20237;-93
2023/04/05 05:13:43;;;;;;;40.47;20.23;;;0.60;99.90;;;;;;10203369;29;20257;-94
2023/04/05 05:18:54;;;;;;;50.17;20.77;;;0.50;99.90;;;;;;10226217;29;20230;-94
2023/04/05 05:24:00;;;;;;;47.93;23.10;;;0.20;99.90;;;;;;10227689;29;20259;-93
2023/04/05 05:29:03;;;;;;;51.20;22.77;;;-0.20;99.90;;;;;;10226883;29;20208;-93
2023/04/05 05:34:09;;;;;;;41.23;19.97;;;-0.20;99.90;;;;;;10194644;29;20205;-93
2023/04/05 05:39:14;;;;;;;54.87;21.43;;;0.10;99.90;;;;;;10185920;29;20204;-93
2023/04/05 05:44:17;;;;;;;56.70;23.23;;;0.00;99.90;;;;;;10186354;29;20221;-93
2023/04/05 05:49:20;;;;;;;52.63;24.93;;;0.00;99.90;;;;;;10187632;29;20206;-93
2023/04/05 05:54:24;;;;;;;65.90;29.03;;;0.20;99.90;;;;;;10189226;29;20204;-93
2023/04/05 05:59:27;;;;;;;86.30;41.53;;;-0.10;99.90;;;;;;10206814;29;20210;-94
2023/04/05 06:04:30;;;;;;;108.80;49.63;;;0.00;99.90;;;;;;10207152;29;20613;-93
2023/04/05 06:09:34;;;;;;;106.53;51.83;;;0.00;99.90;;;;;;10179662;29;20224;-95
2023/04/05 06:14:36;;;;;;;95.33;44.70;;;0.20;99.90;;;;;;10182420;29;20235;-95
2023/04/05 06:19:39;;;;;;;69.90;34.00;;;0.90;99.90;;;;;;10182160;29;20625;-94
2023/04/05 06:24:41;;;;;;;58.40;29.17;;;1.30;99.90;;;;;;10173913;29;20235;-94
2023/04/05 06:29:44;;;;;;;28.40;13.60;;;1.70;99.90;;;;;;10169954;29;20271;-93
2023/04/05 06:34:47;;;;;;;30.03;16.43;;;2.40;99.90;;;;;;10174095;29;20325;-92
2023/04/05 06:39:50;;;;;;;33.63;15.63;;;2.60;99.90;;;;;;10172716;29;20216;-93
2023/04/05 06:44:53;;;;;;;22.30;11.50;;;2.70;99.90;;;;;;10156686;29;20237;-93
2023/04/05 06:49:55;;;;;;;28.67;12.47;;;3.30;99.90;;;;;;10132668;29;20247;-94
2023/04/05 06:54:58;;;;;;;27.73;10.43;;;3.90;99.90;;;;;;10148400;29;20256;-91
2023/04/05 07:00:00;;;;;;;22.23;9.67;;;3.80;99.50;;;;;;10177026;29;20309;-84
2023/04/05 07:05:04;;;;;;;15.80;7.10;;;4.60;99.90;;;;;;10166005;29;20936;-85
2023/04/05 07:10:08;;;;;;;16.97;7.70;;;4.80;97.70;;;;;;10166409;29;20270;-85
2023/04/05 07:15:11;;;;;;;10.53;6.80;;;5.10;97.80;;;;;;10167549;29;20282;-84
2023/04/05 07:20:15;;;;;;;12.07;7.47;;;4.90;95.50;;;;;;10168462;29;20616;-84
2023/04/05 07:25:17;;;;;;;12.37;7.50;;;5.10;93.70;;;;;;10163351;29;20242;-84
2023/04/05 07:30:20;;;;;;;13.27;7.67;;;5.00;92.30;;;;;;10162939;29;20664;-85
2023/04/05 07:35:23;;;;;;;13.67;7.07;;;5.30;94.50;;;;;;10165656;29;20696;-85
2023/04/05 07:40:26;;;;;;;12.47;5.67;;;6.80;95.00;;;;;;10166950;29;20245;-85
2023/04/05 07:45:29;;;;;;;13.43;7.47;;;6.70;95.00;;;;;;10167103;29;20293;-85
2023/04/05 07:50:33;;;;;;;14.40;7.37;;;6.50;79.00;;;;;;10166456;29;20262;-86
2023/04/05 07:55:38;;;;;;;15.03;7.30;;;6.70;79.60;;;;;;10166502;29;20254;-86
2023/04/05 08:00:41;;;;;;;13.10;7.77;;;7.20;87.60;;;;;;10160643;29;20236;-86
2023/04/05 08:05:44;;;;;;;13.80;7.57;;;7.30;77.70;;;;;;10133841;29;21015;-86
2023/04/05 08:10:46;;;;;;;10.73;5.93;;;7.40;88.90;;;;;;10127137;29;20781;-86
2023/04/05 08:15:49;;;;;;;17.47;10.43;;;;;;;;;;10127624;29;20682;-85
2023/04/05 08:20:55;;;;;;;8.83;6.03;;;8.20;73.90;;;;;;10153770;29;20234;-86
2023/04/05 08:25:59;;;;;;;11.97;7.83;;;;;;;;;;10134959;29;20703;-86
2023/04/05 08:31:02;;;;;;;14.20;6.77;;;8.10;90.40;;;;;;10150246;29;20669;-86
2023/04/05 08:36:05;;;;;;;8.73;5.60;;;8.60;79.40;;;;;;10164772;29;20255;-86
2023/04/05 08:41:18;;;;;;;8.50;5.40;;;9.80;71.10;;;;;;10166004;29;20295;-86
2023/04/05 08:46:21;;;;;;;9.53;6.10;;;9.80;73.50;;;;;;10164802;29;20251;-85
2023/04/05 08:51:25;;;;;;;9.27;5.53;;;9.60;60.80;;;;;;10166269;29;20243;-86
2023/04/05 08:56:34;;;;;;;11.30;6.47;;;10.00;58.30;;;;;;10166528;29;20335;-85
2023/04/05 09:01:40;;;;;;;10.17;6.47;;;10.20;59.00;;;;;;10131147;29;20718;-85
2023/04/05 09:06:45;;;;;;;9.27;6.30;;;9.60;48.30;;;;;;10164341;29;20294;-85
2023/04/05 09:11:47;;;;;;;10.10;6.73;;;9.30;49.20;;;;;;10197191;29;20627;-85
2023/04/05 09:16:50;;;;;;;11.73;7.20;;;9.20;59.90;;;;;;10135000;29;20315;-85
2023/04/05 09:22:06;;;;;;;14.70;9.73;;;8.90;51.80;;;;;;10147920;29;20707;-86
2023/04/05 09:27:19;;;;;;;13.13;8.87;;;7.90;44.60;;;;;;10149833;29;20231;-85
2023/04/05 09:32:34;;;;;;;11.60;7.17;;;8.30;51.10;;;;;;10165509;29;20255;-86
2023/04/05 09:37:52;;;;;;;12.03;7.00;;;9.00;57.50;;;;;;10162967;29;20956;-85
2023/04/05 09:42:55;;;;;;;12.53;8.23;;;9.30;46.40;;;;;;10163476;29;20238;-84
2023/04/05 09:47:58;;;;;;;11.17;6.87;;;9.60;39.70;;;;;;10165350;29;20255;-86
2023/04/05 09:53:17;;;;;;;7.83;4.87;;;9.90;39.70;;;;;;10167299;29;20290;-85
2023/04/05 09:58:23;;;;;;;11.77;7.57;;;9.90;47.10;;;;;;10172456;29;20731;-86
2023/04/05 10:03:29;;;;;;;8.10;5.40;;;10.30;41.00;;;;;;10170998;29;20270;-85
2023/04/05 10:08:32;;;;;;;12.37;7.77;;;10.10;36.10;;;;;;10167121;29;20271;-86
2023/04/05 10:13:35;;;;;;;9.97;5.80;;;10.50;36.80;;;;;;10169341;29;20259;-86
2023/04/05 10:18:48;;;;;;;8.20;6.10;;;10.60;37.80;;;;;;10174880;29;20263;-85
2023/04/05 10:24:17;;;;;;;6.47;4.90;;;10.60;29.40;;;;;;10133211;29;20243;-86
2023/04/05 10:29:28;;;;;;;9.57;5.33;;;11.10;41.80;;;;;;10131728;29;20244;-86
2023/04/05 10:34:42;;;;;;;15.33;8.77;;;11.10;39.80;;;;;;10151670;29;20294;-86
2023/04/05 10:39:46;;;;;;;10.17;7.50;;;10.90;26.60;;;;;;10170090;29;20263;-86
2023/04/05 10:44:54;;;;;;;12.07;7.77;;;10.50;29.30;;;;;;10168667;29;20235;-86
2023/04/05 10:50:02;;;;;;;10.53;6.67;;;10.50;33.50;;;;;;10165333;29;20239;-86
2023/04/05 10:55:07;;;;;;;10.90;6.33;;;11.10;46.50;;;;;;10169385;29;20345;-86
2023/04/05 11:00:10;;;;;;;10.23;7.30;;;11.20;34.80;;;;;;10169298;29;20337;-86
2023/04/05 11:05:36;;;;;;;8.20;5.43;;;10.40;25.00;;;;;;10165062;29;20239;-86
2023/04/05 11:10:40;;;;;;;12.47;6.07;;;10.30;45.90;;;;;;10167119;29;20307;-86
2023/04/05 11:15:42;;;;;;;7.80;5.33;;;10.40;46.20;;;;;;10168739;29;20338;-87
2023/04/05 11:21:04;;;;;;;10.33;7.23;;;10.00;34.70;;;;;;10167687;29;20223;-87
2023/04/05 11:26:07;;;;;;;11.87;7.23;;;9.30;23.20;;;;;;10167328;29;20246;-87
2023/04/05 11:31:25;;;;;;;11.40;7.87;;;8.40;26.50;;;;;;10169126;29;20246;-87
2023/04/05 11:36:35;;;;;;;11.13;6.83;;;8.30;37.10;;;;;;10168350;29;20259;-87
2023/04/05 11:41:38;;;;;;;9.17;5.27;;;8.00;36.10;;;;;;10170618;29;20259;-87
2023/04/05 11:46:41;;;;;;;10.77;7.00;;;7.70;29.00;;;;;;10164777;29;20297;-86
2023/04/05 11:51:47;;;;;;;8.73;5.20;;;7.90;26.90;;;;;;10166477;29;20247;-86
2023/04/05 11:56:51;;;;;;;9.00;6.67;;;8.30;40.70;;;;;;10164901;29;20259;-86
2023/04/05 12:02:06;;;;;;;10.23;6.33;;;8.90;31.90;;;;;;10166270;29;20287;-87
2023/04/05 12:07:10;;;;;;;9.17;7.10;;;9.20;26.70;;;;;;10163698;29;20236;-86
2023/04/05 12:12:15;;;;;;;6.90;5.23;;;9.60;34.40;;;;;;10166427;29;20259;-86
2023/04/05 12:17:35;;;;;;;11.53;7.23;;;9.90;41.60;;;;;;10161819;29;20258;-86
2023/04/05 12:22:40;;;;;;;10.43;6.93;;;10.10;27.90;;;;;;10154235;29;20684;-87
2023/04/05 12:27:43;;;;;;;9.43;7.17;;;9.00;22.40;;;;;;10165068;29;20263;-87
2023/04/05 12:32:49;;;;;;;8.33;6.53;;;8.50;21.20;;;;;;10163247;29;20862;-85
2023/04/05 12:37:52;;;;;;;8.83;6.50;;;8.40;24.30;;;;;;10186418;29;20263;-85
2023/04/05 12:43:01;;;;;;;7.53;5.50;;;8.50;25.70;;;;;;10163543;29;20238;-85
2023/04/05 12:48:12;;;;;;;8.07;6.27;;;8.60;31.70;;;;;;10163633;29;20246;-85
2023/04/05 12:53:19;;;;;;;9.73;6.93;;;8.60;26.10;;;;;;10163716;29;20298;-86
2023/04/05 12:58:32;;;;;;;9.60;5.57;;;8.40;23.20;;;;;;10162746;29;20286;-86
2023/04/05 13:03:34;;;;;;;13.17;6.13;;;8.30;19.60;;;;;;10147457;29;20702;-85
2023/04/05 13:08:37;;;;;;;7.30;4.20;;;8.40;20.10;;;;;;10163333;29;20635;-85
2023/04/05 13:13:40;;;;;;;6.47;4.07;;;8.70;24.60;;;;;;10162777;29;20265;-85
2023/04/05 13:18:43;;;;;;;6.73;4.87;;;9.10;33.00;;;;;;10163925;29;20261;-85
2023/04/05 13:23:45;;;;;;;5.77;4.63;;;9.90;41.20;;;;;;10163743;29;20631;-85
2023/04/05 13:28:48;;;;;;;6.70;4.80;;;10.40;35.30;;;;;;10168885;29;20321;-85
2023/04/05 13:33:50;;;;;;;7.40;5.17;;;10.40;29.10;;;;;;10162495;29;20703;-85
2023/04/05 13:38:53;;;;;;;10.30;5.00;;;10.40;29.20;;;;;;10131833;29;20327;-85
2023/04/05 13:43:57;;;;;;;10.17;5.37;;;10.20;20.60;;;;;;10131514;29;20690;-85
2023/04/05 13:49:03;;;;;;;16.23;8.47;;;9.70;20.00;;;;;;10150955;29;20243;-86
2023/04/05 13:54:10;;;;;;;9.73;5.93;;;9.40;24.30;;;;;;10169504;29;20243;-86
2023/04/05 13:59:15;;;;;;;8.00;5.50;;;8.80;29.00;;;;;;10169499;29;20889;-86
2023/04/05 14:04:19;;;;;;;7.23;5.67;;;8.90;26.00;;;;;;10169659;29;20249;-85
2023/04/05 14:09:21;;;;;;;11.83;5.93;;;8.90;26.00;;;;;;10147650;29;20746;-83
2023/04/05 14:14:24;;;;;;;8.23;6.13;;;8.90;24.60;;;;;;10165248;29;20676;-82
2023/04/05 14:19:26;;;;;;;9.03;5.67;;;8.80;22.70;;;;;;10166358;29;20254;-83
2023/04/05 14:24:29;;;;;;;7.00;4.77;;;9.20;22.70;;;;;;10169291;29;20272;-83
2023/04/05 14:29:32;;;;;;;8.50;5.43;;;9.50;18.80;;;;;;10150854;29;20243;-82
2023/04/05 14:34:35;;;;;;;7.70;4.80;;;9.30;16.30;;;;;;10167654;29;20247;-82
2023/04/05 14:39:37;;;;;;;7.70;5.23;;;8.90;19.30;;;;;;10169458;29;20274;-83
2023/04/05 14:44:40;;;;;;;7.00;4.73;;;8.40;19.40;;;;;;10169684;29;20286;-82
2023/04/05 14:49:42;;;;;;;9.07;4.90;;;8.00;19.40;;;;;;10166855;29;20242;-83
2023/04/05 14:54:45;;;;;;;9.07;4.60;;;7.60;19.20;;;;;;10159533;29;20237;-83
2023/04/05 14:59:47;;;;;;;6.67;4.67;;;7.60;20.90;;;;;;10168152;29;20261;-84
2023/04/05 15:04:50;;;;;;;8.57;5.10;;;7.80;16.80;;;;;;10167140;29;20250;-84
2023/04/05 15:09:52;;;;;;;5.57;3.87;;;7.90;16.80;;;;;;10167437;29;20245;-84
2023/04/05 15:14:56;;;;;;;6.43;3.80;;;8.00;17.40;;;;;;10164960;29;20270;-84
2023/04/05 15:19:58;;;;;;;7.13;5.07;;;8.10;18.30;;;;;;10163687;29;20321;-84
2023/04/05 15:25:01;;;;;;;6.60;4.60;;;8.00;16.20;;;;;;10163537;29;20292;-84
2023/04/05 15:30:04;;;;;;;9.60;5.47;;;8.20;17.80;;;;;;10149232;29;20238;-84
2023/04/05 15:35:07;;;;;;;7.63;4.77;;;8.50;18.20;;;;;;10169104;29;20693;-84
2023/04/05 15:40:10;;;;;;;13.27;6.90;;;8.70;16.70;;;;;;10167234;29;20270;-84
2023/04/05 15:45:13;;;;;;;11.13;7.17;;;8.60;17.10;;;;;;10168061;29;20301;-83
2023/04/05 15:50:15;;;;;;;10.03;5.10;;;8.60;17.90;;;;;;10166921;29;20253;-86
2023/04/05 15:55:18;;;;;;;9.77;4.90;;;8.50;19.20;;;;;;10169460;29;20298;-86
2023/04/05 16:00:21;;;;;;;16.23;7.23;;;8.70;20.00;;;;;;10168181;29;20269;-86
2023/04/05 16:05:24;;;;;;;6.20;3.87;;;8.20;19.10;;;;;;10168575;29;20260;-86
2023/04/05 16:10:27;;;;;;;6.80;4.40;;;8.10;20.10;;;;;;10168737;29;20298;-86
2023/04/05 16:15:31;;;;;;;7.80;4.67;;;8.60;20.20;;;;;;10167822;29;20345;-86
2023/04/05 16:20:33;;;;;;;7.67;4.80;;;8.60;18.90;;;;;;10167644;29;20661;-86
2023/04/05 16:25:36;;;;;;;35.93;15.87;;;8.40;20.00;;;;;;10168033;29;20249;-86
2023/04/05 16:30:40;;;;;;;22.40;9.57;;;7.90;19.70;;;;;;10168021;29;20257;-86
2023/04/05 16:35:42;;;;;;;23.87;10.30;;;7.50;20.70;;;;;;10167305;29;20237;-86
2023/04/05 16:40:45;;;;;;;28.53;11.53;;;7.20;20.00;;;;;;10164208;29;20260;-86
2023/04/05 16:45:48;;;;;;;29.03;9.90;;;6.80;20.70;;;;;;10155092;29;20246;-88
2023/04/05 16:50:51;;;;;;;44.83;17.03;;;7.30;25.30;;;;;;10164695;29;20697;-87
2023/04/05 16:55:54;;;;;;;55.43;17.23;;;;;;;;;;10170252;29;20275;-86
2023/04/05 17:00:58;;;;;;;104.57;32.07;;;6.00;23.40;;;;;;10168247;29;20269;-87
2023/04/05 17:06:02;;;;;;;72.33;22.27;;;5.70;23.50;;;;;;10177044;29;20231;-86
2023/04/05 17:11:05;;;;;;;62.67;25.57;;;5.50;25.40;;;;;;10174970;29;20235;-88
2023/04/05 17:16:08;;;;;;;53.53;19.97;;;5.00;27.40;;;;;;10161187;29;20272;-88
2023/04/05 17:21:11;;;;;;;82.53;32.17;;;4.80;28.80;;;;;;10138709;29;20312;-88
2023/04/05 17:26:14;;;;;;;71.67;30.53;;;;;;;;;;9832882;29;9999858;-87
2023/04/05 17:31:17;;;;;;;47.43;19.10;;;4.00;72.10;;;;;;10170654;29;20251;-88
2023/04/05 17:36:20;;;;;;;22.03;12.07;;;3.70;34.70;;;;;;10170589;29;20911;-86
2023/04/05 17:41:23;;;;;;;35.87;18.10;;;3.30;38.60;;;;;;10170690;29;20270;-87
2023/04/05 17:46:26;;;;;;;26.27;15.67;;;;;;;;;;10169581;29;20238;-87
2023/04/05 17:51:42;;;;;;;15.93;11.90;;;2.60;42.00;;;;;;10141177;29;20283;-87
2023/04/05 17:56:45;;;;;;;18.63;10.07;;;2.30;44.20;;;;;;10153338;29;20765;-87
2023/04/05 18:01:52;;;;;;;11.63;8.87;;;2.20;45.20;;;;;;10170356;29;20275;-87
2023/04/05 18:06:55;;;;;;;16.00;9.97;;;2.20;45.90;;;;;;10170256;29;20832;-85
2023/04/05 18:11:58;;;;;;;16.00;11.27;;;2.10;46.60;;;;;;10168292;29;20239;-87
2023/04/05 18:17:01;;;;;;;16.77;11.77;;;2.20;47.00;;;;;;10171014;29;20291;-87
2023/04/05 18:22:03;;;;;;;20.60;11.67;;;2.10;49.10;;;;;;10169000;29;20737;-87
2023/04/05 18:27:06;;;;;;;18.13;11.67;;;2.00;50.50;;;;;;10165082;29;20287;-87
2023/04/05 18:32:09;;;;;;;22.00;12.13;;;1.80;53.10;;;;;;10168119;29;20240;-87
2023/04/05 18:37:12;;;;;;;10.23;6.03;;;1.80;54.40;;;;;;10168460;29;20268;-87
2023/04/05 18:42:14;;;;;;;28.93;15.70;;;1.80;56.80;;;;;;10168856;29;20621;-87
2023/04/05 18:47:17;;;;;;;32.80;20.10;;;1.50;73.60;;;;;;10168231;29;20814;-87
2023/04/05 18:52:24;;;;;;;38.33;20.07;;;1.10;85.30;;;;;;10168557;29;20697;-85
2023/04/05 18:57:27;;;;;;;34.80;20.30;;;0.90;91.60;;;;;;10169545;29;20725;-87
2023/04/05 19:02:30;;;;;;;35.63;19.50;;;1.00;91.00;;;;;;10150484;29;20247;-88
2023/04/05 19:07:32;;;;;;;30.13;16.13;;;1.30;90.30;;;;;;10168296;29;20235;-87
2023/04/05 19:12:35;;;;;;;32.03;16.90;;;1.50;91.60;;;;;;10165668;29;20688;-87
2023/04/05 19:17:37;;;;;;;24.50;14.07;;;1.60;92.50;;;;;;10167226;29;20712;-87
2023/04/05 19:22:40;;;;;;;24.37;11.73;;;1.60;92.60;;;;;;10160494;29;20227;-87
2023/04/05 19:27:42;;;;;;;23.57;13.33;;;1.50;93.00;;;;;;10167958;29;20632;-86
2023/04/05 19:32:45;;;;;;;20.93;10.57;;;1.30;93.90;;;;;;10165561;29;20239;-86
2023/04/05 19:37:47;;;;;;;20.77;9.67;;;1.30;94.50;;;;;;10168446;29;20725;-88
2023/04/05 19:42:51;;;;;;;17.27;10.27;;;1.30;94.90;;;;;;10165823;29;20625;-85
2023/04/05 19:47:55;;;;;;;19.90;11.00;;;1.30;95.40;;;;;;10166966;29;20306;-85
2023/04/05 19:52:58;;;;;;;17.60;9.27;;;1.10;96.50;;;;;;10162861;29;20243;-87
2023/04/05 19:58:06;;;;;;;18.97;9.83;;;0.90;97.70;;;;;;10167699;29;20736;-86
2023/04/05 20:03:30;;;;;;;17.87;8.43;;;0.80;98.60;;;;;;10173005;29;20776;-86
2023/04/05 20:08:36;;;;;;;13.77;8.10;;;0.70;99.80;;;;;;10163443;29;20235;-86
2023/04/05 20:13:55;;;;;;;19.37;9.47;;;0.70;99.90;;;;;;10165614;29;20267;-89
2023/04/05 20:19:04;;;;;;;18.30;9.67;;;0.80;99.90;;;;;;10165675;29;20259;-87
2023/04/05 20:24:08;;;;;;;24.43;12.73;;;1.40;99.90;;;;;;10164329;29;20307;-88
2023/04/05 20:29:16;;;;;;;26.60;14.90;;;1.70;99.90;;;;;;10168293;29;20240;-88
2023/04/05 20:34:30;;;;;;;25.67;14.53;;;1.40;99.90;;;;;;10158820;29;20255;-88
2023/04/05 20:39:33;;;;;;;35.00;16.23;;;1.00;99.90;;;;;;10161275;29;20271;-88
2023/04/05 20:44:36;;;;;;;27.47;16.17;;;1.10;99.90;;;;;;10159576;29;20284;-88
2023/04/05 20:49:39;;;;;;;33.07;17.27;;;0.90;99.90;;;;;;10156991;29;20319;-88
2023/04/05 20:54:41;;;;;;;37.73;19.70;;;0.60;99.90;;;;;;10156343;29;20699;-89
2023/04/05 20:59:44;;;;;;;29.17;14.13;;;0.30;99.90;;;;;;10163093;29;20665;-89
2023/04/05 21:04:49;;;;;;;27.37;15.33;;;0.60;99.90;;;;;;10160178;29;20286;-89
2023/04/05 21:09:51;;;;;;;18.83;11.73;;;0.40;99.90;;;;;;10165981;29;20622;-89
2023/04/05 21:14:54;;;;;;;20.90;10.27;;;0.20;99.90;;;;;;10166849;29;20271;-89
2023/04/05 21:19:57;;;;;;;21.83;13.53;;;0.50;99.90;;;;;;10161433;29;20259;-90
2023/04/05 21:24:59;;;;;;;37.77;17.03;;;0.10;99.90;;;;;;10166476;29;20341;-90
2023/04/05 21:30:02;;;;;;;21.43;11.20;;;0.60;99.90;;;;;;10166497;29;20240;-91
2023/04/05 21:35:05;;;;;;;25.43;14.03;;;0.40;99.90;;;;;;10166834;29;20609;-91
2023/04/05 21:40:08;;;;;;;26.60;15.20;;;0.40;99.90;;;;;;10165675;29;20290;-91
2023/04/05 21:45:11;;;;;;;19.47;11.17;;;-0.10;99.90;;;;;;10165499;29;20642;-90
2023/04/05 21:50:14;;;;;;;22.07;12.67;;;-0.30;99.90;;;;;;10171436;29;20291;-90
2023/04/05 21:55:17;;;;;;;19.53;10.70;;;-0.10;99.90;;;;;;10173797;29;20254;-90
2023/04/05 22:00:19;;;;;;;19.13;10.83;;;-0.10;99.90;;;;;;10173445;29;20326;-89
2023/04/05 22:05:22;;;;;;;20.57;11.90;;;-0.10;99.90;;;;;;10171596;29;20231;-90
2023/04/05 22:10:39;;;;;;;20.97;12.43;;;-0.30;99.90;;;;;;10145899;29;20240;-89
2023/04/05 22:15:42;;;;;;;18.47;10.73;;;-0.40;99.90;;;;;;10166024;29;20319;-90
2023/04/05 22:20:45;;;;;;;24.57;12.93;;;-0.40;99.90;;;;;;10172590;29;20263;-90
2023/04/05 22:25:48;;;;;;;19.33;12.53;;;-0.70;99.90;;;;;;10170789;29;20624;-89
2023/04/05 22:30:50;;;;;;;26.90;14.40;;;-0.90;99.90;;;;;;10141009;29;20316;-90
2023/04/05 22:35:53;;;;;;;26.83;13.83;;;-1.10;99.90;;;;;;10133349;29;20240;-90
2023/04/05 22:40:55;;;;;;;26.63;16.57;;;-1.10;99.90;;;;;;10133443;29;20373;-90
2023/04/05 22:45:57;;;;;;;24.53;14.67;;;-1.30;99.90;;;;;;10170080;29;20236;-90
2023/04/05 22:51:00;;;;;;;15.80;9.00;;;-1.40;99.90;;;;;;10170897;29;20235;-90
2023/04/05 22:56:03;;;;;;;24.70;13.20;;;-1.30;99.90;;;;;;10171373;29;20235;-89
2023/04/05 23:01:07;;;;;;;21.50;12.33;;;-1.20;99.90;;;;;;10171169;29;20251;-89
2023/04/05 23:06:09;;;;;;;20.20;12.60;;;-0.90;99.90;;;;;;10171483;29;20621;-90
2023/04/05 23:11:12;;;;;;;15.03;9.47;;;-1.10;99.90;;;;;;10171310;29;20287;-90
2023/04/05 23:16:15;;;;;;;22.47;11.30;;;-0.90;99.90;;;;;;10170081;29;20323;-90
2023/04/05 23:21:18;;;;;;;23.83;13.53;;;-0.80;99.90;;;;;;10169989;29;20471;-89
2023/04/05 23:26:20;;;;;;;25.70;13.83;;;-0.80;99.90;;;;;;10169956;29;20299;-89
2023/04/05 23:31:23;;;;;;;21.53;11.53;;;-1.30;99.90;;;;;;10166056;29;20323;-89
2023/04/05 23:36:26;;;;;;;18.40;10.70;;;-1.00;99.90;;;;;;10156045;29;20240;-89
2023/04/05 23:41:29;;;;;;;11.87;8.13;;;-1.20;99.90;;;;;;10151583;29;20306;-89
2023/04/05 23:46:32;;;;;;;17.00;11.03;;;-1.20;99.90;;;;;;10168790;29;20695;-89
2023/04/05 23:51:35;;;;;;;16.20;8.37;;;-1.30;99.90;;;;;;10168753;29;20373;-89
2023/04/05 23:56:37;;;;;;;21.00;11.50;;;-1.20;99.90;;;;;;10168963;29;20268;-89
